Time;durP1;ratioP1;P1;durP2;ratioP2;P2;SDS_P1;SDS_P2;PMS_P1;PMS_P2;Temp;Humidity;BMP_temperature;BMP_pressure;BME280_temperature;BME280_humidity;BME280_pressure;Samples;Min_cycle;Max_cycle;Signal;HPM_P1;HPM_P2
2022/07/18 00:02:12;;;;;;;;;;;;;;;;;;4944996;28;20330;-92
2022/07/18 00:04:38;;;;;;;;;;;;;;;;;;4940414;29;20116;-90
2022/07/18 00:07:03;;;;;;;;;;;;;;;;;;4940197;29;19926;-90
2022/07/18 00:09:28;;;;;;;;;;;;;;;;;;4941108;29;19926;-91
2022/07/18 00:11:54;;;;;;;;;;;;;;;;;;4939455;29;19914;-91
2022/07/18 00:14:19;;;;;;;;;;;;;;;;;;4937934;29;19917;-90
2022/07/18 00:16:45;;;;;;;;;;;;;;;;;;4956581;29;20305;-91
2022/07/18 00:19:10;;;;;;;;;;;;;;;;;;4945625;28;19918;-90
2022/07/18 00:21:35;;;;;;;;;;;;;;;;;;4959494;28;20352;-91
2022/07/18 00:24:01;;;;;;;;;;;;;;;;;;4960132;28;19918;-91
2022/07/18 00:26:26;;;;;;;;;;;;;;;;;;4943665;28;20009;-92
2022/07/18 00:28:52;;;;;;;;;;;;;;;;;;4944345;28;19914;-88
2022/07/18 00:31:17;;;;;;;;;;;;;;;;;;4963312;28;19914;-87
2022/07/18 00:33:42;;;;;;;;;;;;;;;;;;4958218;28;19918;-90
2022/07/18 00:36:08;;;;;;;;;;;;;;;;;;4953530;28;19898;-89
2022/07/18 00:38:33;;;;;;;;;;;;;;;;;;4972203;28;19914;-88
2022/07/18 00:40:59;;;;;;;;;;;;;;;;;;4956849;28;19921;-87
2022/07/18 00:43:24;;;;;;;;;;;;;;;;;;4941358;28;20373;-87
2022/07/18 00:45:50;;;;;;;;;;;;;;;;;;4959783;28;19973;-86
2022/07/18 00:48:15;;;;;;;;;;;;;;;;;;4960023;28;20313;-88
2022/07/18 00:50:41;;;;;;;;;;;;;;;;;;4963386;28;19945;-88
2022/07/18 00:53:07;;;;;;;;;;;;;;;;;;4940338;28;19921;-86
2022/07/18 00:55:33;;;;;;;;;;;;;;;;;;4979936;28;19954;-89
2022/07/18 00:57:58;;;;;;;;;;;;;;;;;;4943704;28;19922;-88
2022/07/18 01:03:08;;;;;;;;;;;;;;;;;;4974404;28;19914;-87
2022/07/18 01:05:33;;;;;;;;;;;;;;;;;;4974255;28;19921;-86
2022/07/18 01:07:58;;;;;;;;;;;;;;;;;;4962940;28;20025;-86
2022/07/18 01:10:24;;;;;;;;;;;;;;;;;;4970956;28;19989;-87
2022/07/18 01:12:49;;;;;;;;;;;;;;;;;;4970791;28;19921;-88
2022/07/18 01:15:14;;;;;;;;;;;;;;;;;;4974581;28;19920;-90
2022/07/18 01:17:40;;;;;;;;;;;;;;;;;;4974423;28;19917;-90
2022/07/18 01:20:05;;;;;;;;;;;;;;;;;;4952120;29;19952;-89
2022/07/18 01:22:31;;;;;;;;;;;;;;;;;;4968702;28;20360;-89
2022/07/18 01:24:56;;;;;;;;;;;;;;;;;;4941401;29;20337;-89
2022/07/18 01:27:21;;;;;;;;;;;;;;;;;;4946914;28;20049;-88
2022/07/18 01:29:47;;;;;;;;;;;;;;;;;;4956094;28;19980;-87
2022/07/18 01:32:12;;;;;;;;;;;;;;;;;;4945186;28;19918;-90
2022/07/18 01:34:38;;;;;;;;;;;;;;;;;;4960920;28;20285;-89
2022/07/18 01:37:03;;;;;;;;;;;;;;;;;;4942076;29;19911;-89
2022/07/18 01:39:28;;;;;;;;;;;;;;;;;;4961221;28;20300;-90
2022/07/18 01:41:54;;;;;;;;;;;;;;;;;;4941613;29;19914;-89
2022/07/18 01:44:19;;;;;;;;;;;;;;;;;;4951539;28;19915;-90
2022/07/18 01:46:44;;;;;;;;;;;;;;;;;;4943694;28;20428;-89
2022/07/18 01:49:10;;;;;;;;;;;;;;;;;;4943985;28;19921;-89
2022/07/18 01:51:35;;;;;;;;;;;;;;;;;;4948471;28;20000;-87
2022/07/18 01:54:01;;;;;;;;;;;;;;;;;;4964725;28;19956;-89
2022/07/18 01:56:27;;;;;;;;;;;;;;;;;;4944600;29;19910;-87
2022/07/18 01:58:52;;;;;;;;;;;;;;;;;;4957837;28;19921;-88
2022/07/18 02:01:18;;;;;;;;;;;;;;;;;;4944536;28;20315;-87
2022/07/18 02:03:43;;;;;;;;;;;;;;;;;;4961103;28;19921;-89
2022/07/18 02:06:08;;;;;;;;;;;;;;;;;;4962710;28;20352;-87
2022/07/18 02:08:34;;;;;;;;;;;;;;;;;;4960574;28;19925;-88
2022/07/18 02:10:59;;;;;;;;;;;;;;;;;;4941122;29;20282;-88
2022/07/18 02:13:24;;;;;;;;;;;;;;;;;;4960276;28;19925;-88
2022/07/18 02:15:50;;;;;;;;;;;;;;;;;;4945185;29;19945;-88
2022/07/18 02:18:15;;;;;;;;;;;;;;;;;;4950942;28;20278;-88
2022/07/18 02:20:41;;;;;;;;;;;;;;;;;;4958629;28;19918;-86
2022/07/18 02:23:07;;;;;;;;;;;;;;;;;;4939509;28;20369;-88
2022/07/18 02:25:33;;;;;;;;;;;;;;;;;;4958545;28;19922;-88
2022/07/18 02:27:58;;;;;;;;;;;;;;;;;;4944055;29;19961;-84
2022/07/18 02:30:24;;;;;;;;;;;;;;;;;;4951876;28;19914;-88
2022/07/18 02:32:49;;;;;;;;;;;;;;;;;;4945186;28;19910;-90
2022/07/18 02:35:14;;;;;;;;;;;;;;;;;;4944784;28;20016;-90
2022/07/18 02:37:41;;;;;;;;;;;;;;;;;;4945161;29;20027;-89
2022/07/18 02:40:07;;;;;;;;;;;;;;;;;;4949000;28;19914;-88
2022/07/18 02:42:36;;;;;;;;;;;;;;;;;;4943864;28;19914;-90
2022/07/18 02:45:01;;;;;;;;;;;;;;;;;;4959326;28;19915;-91
2022/07/18 02:47:26;;;;;;;;;;;;;;;;;;4942924;28;19918;-90
2022/07/18 02:49:52;;;;;;;;;;;;;;;;;;4943176;28;19914;-87
2022/07/18 02:52:17;;;;;;;;;;;;;;;;;;4942600;28;19916;-90
2022/07/18 02:54:43;;;;;;;;;;;;;;;;;;4942424;28;19973;-89
2022/07/18 02:57:08;;;;;;;;;;;;;;;;;;4958547;28;19914;-90
2022/07/18 02:59:33;;;;;;;;;;;;;;;;;;4940379;29;19918;-90
2022/07/18 03:01:59;;;;;;;;;;;;;;;;;;4960649;28;20017;-90
2022/07/18 03:04:24;;;;;;;;;;;;;;;;;;4939089;29;19997;-88
2022/07/18 03:06:50;;;;;;;;;;;;;;;;;;4945196;29;19970;-91
2022/07/18 03:09:15;;;;;;;;;;;;;;;;;;4943842;28;19925;-89
2022/07/18 03:11:40;;;;;;;;;;;;;;;;;;4941027;29;19918;-89
2022/07/18 03:14:06;;;;;;;;;;;;;;;;;;4958410;28;19921;-89
2022/07/18 03:16:31;;;;;;;;;;;;;;;;;;4940739;28;19938;-89
2022/07/18 03:18:57;;;;;;;;;;;;;;;;;;4958055;28;19914;-90
2022/07/18 03:21:22;;;;;;;;;;;;;;;;;;4942087;28;19914;-90
2022/07/18 03:23:51;;;;;;;;;;;;;;;;;;4958380;28;20345;-91
2022/07/18 03:26:16;;;;;;;;;;;;;;;;;;4962827;28;19962;-89
2022/07/18 03:28:43;;;;;;;;;;;;;;;;;;4948687;28;19918;-90
2022/07/18 03:31:09;;;;;;;;;;;;;;;;;;4941089;28;19962;-89
2022/07/18 03:33:34;;;;;;;;;;;;;;;;;;4940636;29;19914;-91
2022/07/18 03:35:59;;;;;;;;;;;;;;;;;;4956250;28;20278;-92
2022/07/18 03:38:25;;;;;;;;;;;;;;;;;;4942854;28;19914;-92
2022/07/18 03:40:50;;;;;;;;;;;;;;;;;;4941108;29;20065;-90
2022/07/18 03:43:16;;;;;;;;;;;;;;;;;;4963964;28;19930;-88
2022/07/18 03:45:42;;;;;;;;;;;;;;;;;;4950331;28;19929;-89
2022/07/18 03:48:07;;;;;;;;;;;;;;;;;;4943306;29;19914;-91
2022/07/18 03:50:33;;;;;;;;;;;;;;;;;;4941887;29;19965;-89
2022/07/18 03:53:02;;;;;;;;;;;;;;;;;;4956828;28;19960;-91
2022/07/18 03:55:27;;;;;;;;;;;;;;;;;;4945454;28;19914;-90
2022/07/18 03:57:53;;;;;;;;;;;;;;;;;;4944164;29;19918;-90
2022/07/18 04:00:18;;;;;;;;;;;;;;;;;;4954969;28;19976;-91
2022/07/18 04:02:44;;;;;;;;;;;;;;;;;;4944488;29;19965;-89
2022/07/18 04:05:09;;;;;;;;;;;;;;;;;;4969899;28;20010;-91
2022/07/18 04:07:34;;;;;;;;;;;;;;;;;;4973729;28;19918;-89
2022/07/18 04:10:00;;;;;;;;;;;;;;;;;;4971997;28;19925;-91
2022/07/18 04:12:25;;;;;;;;;;;;;;;;;;4958364;28;19989;-90
2022/07/18 04:14:50;;;;;;;;;;;;;;;;;;4954922;28;19929;-90
2022/07/18 04:17:16;;;;;;;;;;;;;;;;;;4970070;28;19941;-90
2022/07/18 04:19:41;;;;;;;;;;;;;;;;;;4967207;28;19944;-90
2022/07/18 04:22:07;;;;;;;;;;;;;;;;;;4957236;28;19914;-90
2022/07/18 04:24:32;;;;;;;;;;;;;;;;;;4949031;29;19991;-90
2022/07/18 04:26:58;;;;;;;;;;;;;;;;;;4957769;28;20289;-90
2022/07/18 04:29:23;;;;;;;;;;;;;;;;;;4952913;28;19953;-88
2022/07/18 04:31:49;;;;;;;;;;;;;;;;;;4968595;28;19949;-89
2022/07/18 04:34:14;;;;;;;;;;;;;;;;;;4951530;28;20180;-89
2022/07/18 04:36:40;;;;;;;;;;;;;;;;;;4953632;28;19984;-89
2022/07/18 04:39:05;;;;;;;;;;;;;;;;;;4953071;28;19914;-90
2022/07/18 04:41:34;;;;;;;;;;;;;;;;;;4957988;29;20483;-90
2022/07/18 04:43:59;;;;;;;;;;;;;;;;;;4963179;28;19914;-87
2022/07/18 04:46:24;;;;;;;;;;;;;;;;;;4966201;28;19929;-88
2022/07/18 04:48:50;;;;;;;;;;;;;;;;;;4942396;29;20357;-85
2022/07/18 04:51:15;;;;;;;;;;;;;;;;;;4956092;28;19915;-87
2022/07/18 04:53:41;;;;;;;;;;;;;;;;;;4961021;28;20009;-84
2022/07/18 04:56:06;;;;;;;;;;;;;;;;;;4975111;28;20435;-83
2022/07/18 04:58:31;;;;;;;;;;;;;;;;;;4973902;28;19922;-84
2022/07/18 05:00:57;;;;;;;;;;;;;;;;;;4972570;28;20201;-83
2022/07/18 05:03:22;;;;;;;;;;;;;;;;;;4973686;28;19914;-84
2022/07/18 05:05:48;;;;;;;;;;;;;;;;;;4972817;28;19918;-83
2022/07/18 05:08:13;;;;;;;;;;;;;;;;;;4973564;28;19914;-84
2022/07/18 05:10:39;;;;;;;;;;;;;;;;;;4981333;28;20363;-85
2022/07/18 05:13:07;;;;;;;;;;;;;;;;;;4966304;28;19949;-85
2022/07/18 05:15:32;;;;;;;;;;;;;;;;;;4983442;28;19914;-85
2022/07/18 05:17:57;;;;;;;;;;;;;;;;;;4964029;28;19914;-86
2022/07/18 05:20:23;;;;;;;;;;;;;;;;;;4981155;28;19968;-85
2022/07/18 05:22:48;;;;;;;;;;;;;;;;;;4980034;28;19910;-85
2022/07/18 05:25:14;;;;;;;;;;;;;;;;;;4979932;28;19914;-87
2022/07/18 05:27:39;;;;;;;;;;;;;;;;;;4960450;28;20403;-87
2022/07/18 05:30:05;;;;;;;;;;;;;;;;;;4960283;28;19926;-88
2022/07/18 05:32:30;;;;;;;;;;;;;;;;;;4945826;29;19915;-87
2022/07/18 05:34:56;;;;;;;;;;;;;;;;;;4964332;28;19969;-86
2022/07/18 05:37:21;;;;;;;;;;;;;;;;;;4955525;28;19918;-86
2022/07/18 05:39:46;;;;;;;;;;;;;;;;;;4976153;28;19960;-86
2022/07/18 05:42:11;;;;;;;;;;;;;;;;;;4976903;28;19918;-86
2022/07/18 05:44:37;;;;;;;;;;;;;;;;;;4976674;28;19914;-86
2022/07/18 05:47:02;;;;;;;;;;;;;;;;;;4975593;28;19914;-85
2022/07/18 05:49:28;;;;;;;;;;;;;;;;;;4976583;28;19961;-85
2022/07/18 05:51:53;;;;;;;;;;;;;;;;;;4975167;28;19921;-84
2022/07/18 05:54:19;;;;;;;;;;;;;;;;;;4975124;28;19918;-86
2022/07/18 05:56:44;;;;;;;;;;;;;;;;;;4946598;29;20069;-85
2022/07/18 05:59:09;;;;;;;;;;;;;;;;;;4969241;28;19914;-86
2022/07/18 06:01:35;;;;;;;;;;;;;;;;;;4976725;28;20372;-86
2022/07/18 06:04:00;;;;;;;;;;;;;;;;;;4974715;28;19910;-86
2022/07/18 06:06:25;;;;;;;;;;;;;;;;;;4956554;28;20053;-86
2022/07/18 06:08:51;;;;;;;;;;;;;;;;;;4952161;28;20389;-84
2022/07/18 06:11:16;;;;;;;;;;;;;;;;;;4959196;28;19984;-86
2022/07/18 06:13:42;;;;;;;;;;;;;;;;;;4958477;28;19957;-85
2022/07/18 06:16:07;;;;;;;;;;;;;;;;;;4974880;28;19917;-86
2022/07/18 06:18:34;;;;;;;;;;;;;;;;;;4959038;28;20016;-86
2022/07/18 06:20:59;;;;;;;;;;;;;;;;;;4957367;28;20441;-84
2022/07/18 06:23:25;;;;;;;;;;;;;;;;;;4973687;28;19918;-84
2022/07/18 06:25:50;;;;;;;;;;;;;;;;;;4974595;28;20296;-83
2022/07/18 06:28:16;;;;;;;;;;;;;;;;;;4958205;28;20365;-84
2022/07/18 06:30:41;;;;;;;;;;;;;;;;;;4946109;29;20006;-87
2022/07/18 06:33:07;;;;;;;;;;;;;;;;;;4955792;29;20013;-87
2022/07/18 06:35:33;;;;;;;;;;;;;;;;;;4974110;28;19981;-86
2022/07/18 06:37:58;;;;;;;;;;;;;;;;;;4958605;28;20374;-85
2022/07/18 06:40:27;;;;;;;;;;;;;;;;;;4959389;28;19925;-86
2022/07/18 06:42:52;;;;;;;;;;;;;;;;;;4939870;29;19914;-86
2022/07/18 06:45:18;;;;;;;;;;;;;;;;;;4954774;28;20406;-87
2022/07/18 06:47:44;;;;;;;;;;;;;;;;;;4941453;28;19957;-87
2022/07/18 06:50:12;;;;;;;;;;;;;;;;;;4941058;29;19919;-87
2022/07/18 06:52:40;;;;;;;;;;;;;;;;;;4942749;29;20291;-85
2022/07/18 06:55:06;;;;;;;;;;;;;;;;;;4959737;28;20357;-86
2022/07/18 06:57:31;;;;;;;;;;;;;;;;;;4975510;28;19960;-85
2022/07/18 06:59:57;;;;;;;;;;;;;;;;;;4942142;29;19937;-83
2022/07/18 07:02:22;;;;;;;;;;;;;;;;;;4957690;29;19914;-84
2022/07/18 07:04:48;;;;;;;;;;;;;;;;;;4976402;28;20297;-85
2022/07/18 07:07:13;;;;;;;;;;;;;;;;;;4977428;28;19918;-84
2022/07/18 07:09:38;;;;;;;;;;;;;;;;;;4980908;28;19929;-86
2022/07/18 07:12:04;;;;;;;;;;;;;;;;;;4959149;28;19961;-85
2022/07/18 07:14:29;;;;;;;;;;;;;;;;;;4958387;28;19954;-86
2022/07/18 07:16:55;;;;;;;;;;;;;;;;;;4960129;28;19937;-87
2022/07/18 07:19:20;;;;;;;;;;;;;;;;;;4947399;28;19914;-87
2022/07/18 07:21:46;;;;;;;;;;;;;;;;;;4942646;28;19922;-85
2022/07/18 07:24:12;;;;;;;;;;;;;;;;;;4957164;28;19910;-82
2022/07/18 07:26:37;;;;;;;;;;;;;;;;;;4974279;28;20299;-80
2022/07/18 07:29:02;;;;;;;;;;;;;;;;;;4972634;28;20373;-81
2022/07/18 07:31:28;;;;;;;;;;;;;;;;;;4956779;28;19914;-80
2022/07/18 07:33:53;;;;;;;;;;;;;;;;;;4972448;28;19914;-81
2022/07/18 07:36:19;;;;;;;;;;;;;;;;;;4958584;28;20045;-84
2022/07/18 07:38:44;;;;;;;;;;;;;;;;;;4973722;28;19964;-83
2022/07/18 07:41:13;;;;;;;;;;;;;;;;;;4957146;28;20013;-84
2022/07/18 07:43:38;;;;;;;;;;;;;;;;;;4957135;28;19911;-84
2022/07/18 07:46:04;;;;;;;;;;;;;;;;;;4973564;28;20301;-85
2022/07/18 07:48:29;;;;;;;;;;;;;;;;;;4958269;28;19921;-83
2022/07/18 07:50:55;;;;;;;;;;;;;;;;;;4957779;28;19914;-83
2022/07/18 07:53:21;;;;;;;;;;;;;;;;;;4973556;28;19914;-85
2022/07/18 07:55:46;;;;;;;;;;;;;;;;;;4958032;28;20377;-83
2022/07/18 07:58:11;;;;;;;;;;;;;;;;;;4957053;28;19968;-82
2022/07/18 08:00:37;;;;;;;;;;;;;;;;;;4974620;28;20013;-81
2022/07/18 08:03:02;;;;;;;;;;;;;;;;;;4974446;28;19914;-84
2022/07/18 08:05:28;;;;;;;;;;;;;;;;;;4974585;28;19961;-84
2022/07/18 08:07:53;;;;;;;;;;;;;;;;;;4972528;28;19914;-84
2022/07/18 08:10:18;;;;;;;;;;;;;;;;;;4974316;28;19914;-84
2022/07/18 08:12:44;;;;;;;;;;;;;;;;;;4972616;28;19914;-83
2022/07/18 08:15:09;;;;;;;;;;;;;;;;;;4940345;28;19968;-84
2022/07/18 08:17:35;;;;;;;;;;;;;;;;;;4972036;28;20018;-83
2022/07/18 08:20:00;;;;;;;;;;;;;;;;;;4955905;28;19917;-84
2022/07/18 08:22:25;;;;;;;;;;;;;;;;;;4972235;28;19922;-83
2022/07/18 08:24:51;;;;;;;;;;;;;;;;;;4956458;28;19971;-83
2022/07/18 08:27:16;;;;;;;;;;;;;;;;;;4972552;28;20005;-84
2022/07/18 08:29:42;;;;;;;;;;;;;;;;;;4972220;28;19910;-84
2022/07/18 08:32:08;;;;;;;;;;;;;;;;;;4956289;28;20421;-86
2022/07/18 08:34:33;;;;;;;;;;;;;;;;;;4972769;28;19917;-84
2022/07/18 08:36:58;;;;;;;;;;;;;;;;;;4972352;28;19921;-85
2022/07/18 08:39:24;;;;;;;;;;;;;;;;;;4956057;28;20427;-83
2022/07/18 08:41:49;;;;;;;;;;;;;;;;;;4974169;28;19918;-86
2022/07/18 08:44:15;;;;;;;;;;;;;;;;;;4959804;28;20334;-84
2022/07/18 08:46:40;;;;;;;;;;;;;;;;;;4960879;28;19918;-77
2022/07/18 08:49:06;;;;;;;;;;;;;;;;;;4976698;28;19921;-77
2022/07/18 08:51:31;;;;;;;;;;;;;;;;;;4975683;28;19980;-77
2022/07/18 08:53:57;;;;;;;;;;;;;;;;;;4975203;28;19968;-79
2022/07/18 08:56:22;;;;;;;;;;;;;;;;;;4976947;28;20296;-78
2022/07/18 08:58:47;;;;;;;;;;;;;;;;;;4959397;28;20000;-78
2022/07/18 09:01:13;;;;;;;;;;;;;;;;;;4975809;28;19914;-78
2022/07/18 09:03:38;;;;;;;;;;;;;;;;;;4975609;28;19914;-77
2022/07/18 09:06:04;;;;;;;;;;;;;;;;;;4976811;28;19996;-77
2022/07/18 09:08:30;;;;;;;;;;;;;;;;;;4975478;28;20333;-77
2022/07/18 09:10:55;;;;;;;;;;;;;;;;;;4975761;28;20009;-80
2022/07/18 09:13:20;;;;;;;;;;;;;;;;;;4975378;28;19914;-84
2022/07/18 09:15:46;;;;;;;;;;;;;;;;;;4961109;28;20290;-83
2022/07/18 09:18:11;;;;;;;;;;;;;;;;;;4977874;28;20305;-83
2022/07/18 09:20:36;;;;;;;;;;;;;;;;;;4977408;28;20255;-84
2022/07/18 09:23:02;;;;;;;;;;;;;;;;;;4976327;28;19914;-83
2022/07/18 09:25:27;;;;;;;;;;;;;;;;;;4976467;28;19939;-85
2022/07/18 09:27:53;;;;;;;;;;;;;;;;;;4978748;28;19953;-83
2022/07/18 09:30:18;;;;;;;;;;;;;;;;;;4983387;28;19941;-86
2022/07/18 09:32:44;;;;;;;;;;;;;;;;;;4955091;29;19996;-88
2022/07/18 09:35:09;;;;;;;;;;;;;;;;;;4972879;28;19915;-89
2022/07/18 09:37:41;;;;;;;;;;;;;;;;;;4947418;28;20405;-79
2022/07/18 09:40:07;;;;;;;;;;;;;;;;;;4975264;28;19914;-83
2022/07/18 09:42:32;;;;;;;;;;;;;;;;;;4977968;28;19910;-83
2022/07/18 09:44:58;;;;;;;;;;;;;;;;;;4943615;29;19919;-87
2022/07/18 09:47:24;;;;;;;;;;;;;;;;;;4953053;29;19919;-90
2022/07/18 09:49:57;;;;;;;;;;;;;;;;;;4960577;28;19929;-87
2022/07/18 09:52:30;;;;;;;;;;;;;;;;;;4979624;28;19921;-86
2022/07/18 09:54:56;;;;;;;;;;;;;;;;;;4976616;28;19914;-87
2022/07/18 09:57:21;;;;;;;;;;;;;;;;;;4985522;28;19969;-85
2022/07/18 09:59:49;;;;;;;;;;;;;;;;;;4974528;28;19914;-85
2022/07/18 10:02:15;;;;;;;;;;;;;;;;;;4957650;29;20345;-87
2022/07/18 10:04:40;;;;;;;;;;;;;;;;;;4961669;28;19914;-85
2022/07/18 10:07:06;;;;;;;;;;;;;;;;;;4975981;28;19949;-89
2022/07/18 10:09:31;;;;;;;;;;;;;;;;;;4959252;28;19926;-84
2022/07/18 10:11:57;;;;;;;;;;;;;;;;;;4982421;28;19973;-83
2022/07/18 10:14:22;;;;;;;;;;;;;;;;;;4981866;28;19913;-86
2022/07/18 10:16:48;;;;;;;;;;;;;;;;;;4974459;28;19918;-85
2022/07/18 10:19:13;;;;;;;;;;;;;;;;;;4974826;23;19925;-86
2022/07/18 10:21:39;;;;;;;;;;;;;;;;;;5031925;28;19913;-83
2022/07/18 10:24:04;;;;;;;;;;;;;;;;;;5017713;28;19925;-84
2022/07/18 10:26:30;;;;;;;;;;;;;;;;;;5019456;28;20036;-86
2022/07/18 10:28:55;;;;;;;;;;;;;;;;;;5036648;28;19919;-87
2022/07/18 10:31:21;;;;;;;;;;;;;;;;;;5048065;28;19969;-84
2022/07/18 10:33:48;;;;;;;;;;;;;;;;;;5049346;28;19967;-85
2022/07/18 10:36:14;;;;;;;;;;;;;;;;;;5051749;28;19968;-85
2022/07/18 10:38:39;;;;;;;;;;;;;;;;;;5061710;28;19920;-84
2022/07/18 10:41:05;;;;;;;;;;;;;;;;;;5035839;28;19909;-86
2022/07/18 10:43:30;;;;;;;;;;;;;;;;;;5023898;28;19979;-86
2022/07/18 10:45:58;;;;;;;;;;;;;;;;;;5026496;28;20023;-83
2022/07/18 10:48:24;;;;;;;;;;;;;;;;;;5034915;28;20032;-85
2022/07/18 10:50:49;;;;;;;;;;;;;;;;;;5042861;28;19919;-85
2022/07/18 10:53:15;;;;;;;;;;;;;;;;;;5040314;28;20388;-86
2022/07/18 10:55:40;;;;;;;;;;;;;;;;;;5033653;28;20397;-87
2022/07/18 10:58:06;;;;;;;;;;;;;;;;;;5040073;28;20372;-87
2022/07/18 11:00:32;;;;;;;;;;;;;;;;;;5029147;28;19924;-82
2022/07/18 11:02:57;;;;;;;;;;;;;;;;;;5034865;28;19918;-85
2022/07/18 11:05:22;;;;;;;;;;;;;;;;;;5029844;28;19913;-85
2022/07/18 11:07:47;;;;;;;;;;;;;;;;;;5027586;28;20261;-84
2022/07/18 11:10:13;;;;;;;;;;;;;;;;;;5011844;28;20288;-84
2022/07/18 11:12:38;;;;;;;;;;;;;;;;;;5034247;28;19956;-86
2022/07/18 11:15:04;;;;;;;;;;;;;;;;;;5030460;28;19913;-85
2022/07/18 11:17:29;;;;;;;;;;;;;;;;;;5023678;28;19940;-86
2022/07/18 11:19:55;;;;;;;;;;;;;;;;;;5030393;28;20284;-85
2022/07/18 11:22:20;;;;;;;;;;;;;;;;;;5012689;28;19913;-84
2022/07/18 11:24:45;;;;;;;;;;;;;;;;;;5013500;28;19917;-86
2022/07/18 11:27:11;;;;;;;;;;;;;;;;;;5015958;28;19923;-87
2022/07/18 11:29:36;;;;;;;;;;;;;;;;;;5014581;28;19914;-84
2022/07/18 11:32:03;;;;;;;;;;;;;;;;;;5026736;28;19913;-86
2022/07/18 11:34:31;;;;;;;;;;;;;;;;;;5034212;28;19967;-86
2022/07/18 11:36:57;;;;;;;;;;;;;;;;;;5029439;28;20241;-87
2022/07/18 11:39:24;;;;;;;;;;;;;;;;;;5015807;28;19972;-88
2022/07/18 11:41:50;;;;;;;;;;;;;;;;;;4999795;28;19913;-86
2022/07/18 11:44:16;;;;;;;;;;;;;;;;;;4980701;28;19914;-85
2022/07/18 11:46:42;;;;;;;;;;;;;;;;;;5032073;28;20304;-88
2022/07/18 11:49:07;;;;;;;;;;;;;;;;;;5041915;28;19928;-87
2022/07/18 11:51:33;;;;;;;;;;;;;;;;;;5023825;28;19913;-85
2022/07/18 11:53:59;;;;;;;;;;;;;;;;;;5032472;28;20008;-77
2022/07/18 11:56:24;;;;;;;;;;;;;;;;;;5033734;28;20376;-82
2022/07/18 11:58:49;;;;;;;;;;;;;;;;;;5015618;28;19920;-83
2022/07/18 12:01:15;;;;;;;;;;;;;;;;;;5028691;28;19940;-84
2022/07/18 12:03:40;;;;;;;;;;;;;;;;;;5021861;28;19914;-83
2022/07/18 12:06:05;;;;;;;;;;;;;;;;;;5025370;28;19917;-82
2022/07/18 12:08:31;;;;;;;;;;;;;;;;;;5016927;28;19913;-82
2022/07/18 12:10:56;;;;;;;;;;;;;;;;;;5018874;28;20272;-83
2022/07/18 12:13:22;;;;;;;;;;;;;;;;;;5029559;28;19913;-83
2022/07/18 12:15:47;;;;;;;;;;;;;;;;;;5030726;28;20024;-83
2022/07/18 12:18:13;;;;;;;;;;;;;;;;;;5037062;28;19936;-83
2022/07/18 12:20:38;;;;;;;;;;;;;;;;;;5025941;28;19917;-83
2022/07/18 12:23:04;;;;;;;;;;;;;;;;;;5034947;28;19913;-83
2022/07/18 12:25:29;;;;;;;;;;;;;;;;;;5023331;28;19985;-83
2022/07/18 12:27:54;;;;;;;;;;;;;;;;;;5040281;28;19931;-81
2022/07/18 12:30:20;;;;;;;;;;;;;;;;;;5036394;28;20055;-85
2022/07/18 12:32:45;;;;;;;;;;;;;;;;;;5039168;28;19913;-84
2022/07/18 12:35:11;;;;;;;;;;;;;;;;;;5026147;28;19913;-83
2022/07/18 12:37:36;;;;;;;;;;;;;;;;;;5043396;28;19914;-83
2022/07/18 12:40:02;;;;;;;;;;;;;;;;;;5030086;28;20019;-82
2022/07/18 12:42:27;;;;;;;;;;;;;;;;;;5032655;28;19913;-83
2022/07/18 12:44:53;;;;;;;;;;;;;;;;;;5030815;28;19921;-83
2022/07/18 12:47:18;;;;;;;;;;;;;;;;;;5025731;28;19967;-82
2022/07/18 12:49:44;;;;;;;;;;;;;;;;;;5020711;28;20224;-82
2022/07/18 12:52:09;;;;;;;;;;;;;;;;;;5018859;28;19992;-83
2022/07/18 12:54:34;;;;;;;;;;;;;;;;;;5028591;28;19997;-84
2022/07/18 12:57:00;;;;;;;;;;;;;;;;;;5030850;28;19920;-84
2022/07/18 12:59:25;;;;;;;;;;;;;;;;;;5030875;28;19913;-83
2022/07/18 13:01:51;;;;;;;;;;;;;;;;;;5030606;28;19917;-83
2022/07/18 13:04:16;;;;;;;;;;;;;;;;;;5026845;28;19913;-82
2022/07/18 13:06:41;;;;;;;;;;;;;;;;;;5011540;28;19968;-82
2022/07/18 13:09:07;;;;;;;;;;;;;;;;;;5025689;28;19913;-83
2022/07/18 13:11:32;;;;;;;;;;;;;;;;;;5019914;28;19913;-84
2022/07/18 13:13:58;;;;;;;;;;;;;;;;;;5023706;28;19917;-82
2022/07/18 13:16:23;;;;;;;;;;;;;;;;;;5016368;28;19960;-81
2022/07/18 13:18:49;;;;;;;;;;;;;;;;;;5027659;28;19924;-82
2022/07/18 13:21:16;;;;;;;;;;;;;;;;;;5016429;28;19936;-84
2022/07/18 13:23:42;;;;;;;;;;;;;;;;;;5029876;28;20292;-86
2022/07/18 13:26:07;;;;;;;;;;;;;;;;;;5017461;28;19918;-81
2022/07/18 13:28:33;;;;;;;;;;;;;;;;;;5027363;28;19920;-83
2022/07/18 13:30:58;;;;;;;;;;;;;;;;;;5019729;28;19921;-84
2022/07/18 13:33:23;;;;;;;;;;;;;;;;;;5033360;28;19913;-85
2022/07/18 13:35:49;;;;;;;;;;;;;;;;;;5035085;28;19994;-86
2022/07/18 13:38:14;;;;;;;;;;;;;;;;;;5044446;28;19913;-85
2022/07/18 13:40:39;;;;;;;;;;;;;;;;;;5032975;28;19913;-83
2022/07/18 13:43:05;;;;;;;;;;;;;;;;;;5001588;28;20019;-84
2022/07/18 13:45:30;;;;;;;;;;;;;;;;;;5027117;28;20066;-84
2022/07/18 13:47:56;;;;;;;;;;;;;;;;;;5025970;28;19924;-85
2022/07/18 13:50:21;;;;;;;;;;;;;;;;;;5011907;28;19920;-85
2022/07/18 13:52:46;;;;;;;;;;;;;;;;;;5017217;28;19964;-82
2022/07/18 13:55:12;;;;;;;;;;;;;;;;;;5013261;28;19925;-84
2022/07/18 13:57:38;;;;;;;;;;;;;;;;;;5014701;28;20033;-84
2022/07/18 14:00:03;;;;;;;;;;;;;;;;;;5011826;28;19937;-82
2022/07/18 14:02:29;;;;;;;;;;;;;;;;;;5013730;28;19920;-84
2022/07/18 14:04:54;;;;;;;;;;;;;;;;;;4999953;28;20002;-88
2022/07/18 14:07:20;;;;;;;;;;;;;;;;;;5019206;28;20400;-88
2022/07/18 14:09:45;;;;;;;;;;;;;;;;;;5016528;28;19917;-86
2022/07/18 14:12:11;;;;;;;;;;;;;;;;;;5019661;28;19913;-85
2022/07/18 14:14:39;;;;;;;;;;;;;;;;;;5037282;28;19920;-85
2022/07/18 14:17:07;;;;;;;;;;;;;;;;;;5013862;28;20381;-87
2022/07/18 14:19:36;;;;;;;;;;;;;;;;;;4989507;28;19940;-80
2022/07/18 14:22:02;;;;;;;;;;;;;;;;;;5005016;28;19914;-79
2022/07/18 14:24:27;;;;;;;;;;;;;;;;;;5028908;28;20292;-81
2022/07/18 14:26:53;;;;;;;;;;;;;;;;;;5017814;28;19933;-88
2022/07/18 14:29:19;;;;;;;;;;;;;;;;;;5005853;28;20364;-87
2022/07/18 14:31:44;;;;;;;;;;;;;;;;;;5033784;28;19913;-83
2022/07/18 14:34:10;;;;;;;;;;;;;;;;;;5004716;28;19921;-82
2022/07/18 14:36:35;;;;;;;;;;;;;;;;;;5031862;28;19920;-89
2022/07/18 14:39:00;;;;;;;;;;;;;;;;;;5003140;28;19913;-89
2022/07/18 14:41:26;;;;;;;;;;;;;;;;;;5005607;28;19919;-89
2022/07/18 14:43:52;;;;;;;;;;;;;;;;;;5030053;28;19909;-89
2022/07/18 14:46:17;;;;;;;;;;;;;;;;;;5007613;28;19932;-88
2022/07/18 14:48:42;;;;;;;;;;;;;;;;;;5014530;28;19960;-89
2022/07/18 14:51:08;;;;;;;;;;;;;;;;;;4998860;28;19987;-88
2022/07/18 14:53:33;;;;;;;;;;;;;;;;;;5012751;28;19913;-88
2022/07/18 14:55:59;;;;;;;;;;;;;;;;;;5005396;28;19925;-88
2022/07/18 14:58:24;;;;;;;;;;;;;;;;;;5029814;28;20321;-88
2022/07/18 15:00:50;;;;;;;;;;;;;;;;;;5012132;28;19913;-86
2022/07/18 15:03:15;;;;;;;;;;;;;;;;;;5019041;28;20272;-89
2022/07/18 15:05:42;;;;;;;;;;;;;;;;;;5012713;28;19914;-89
2022/07/18 15:08:07;;;;;;;;;;;;;;;;;;5005707;28;19960;-89
2022/07/18 15:10:33;;;;;;;;;;;;;;;;;;5029033;28;19920;-88
2022/07/18 15:12:58;;;;;;;;;;;;;;;;;;4999138;28;19917;-88
2022/07/18 15:15:25;;;;;;;;;;;;;;;;;;5015900;28;19913;-89
2022/07/18 15:17:50;;;;;;;;;;;;;;;;;;5012660;28;19917;-89
2022/07/18 15:20:17;;;;;;;;;;;;;;;;;;5011567;28;20410;-88
2022/07/18 15:22:43;;;;;;;;;;;;;;;;;;5018937;28;19913;-90
2022/07/18 15:25:08;;;;;;;;;;;;;;;;;;4985213;28;19917;-86
2022/07/18 15:27:33;;;;;;;;;;;;;;;;;;5015878;28;19921;-92
2022/07/18 15:29:59;;;;;;;;;;;;;;;;;;5005276;28;19914;-90
2022/07/18 15:32:24;;;;;;;;;;;;;;;;;;4997005;28;19914;-90
2022/07/18 15:34:50;;;;;;;;;;;;;;;;;;5030581;28;19909;-89
2022/07/18 15:37:15;;;;;;;;;;;;;;;;;;5031462;28;19913;-88
2022/07/18 15:39:41;;;;;;;;;;;;;;;;;;5005942;28;19917;-89
2022/07/18 15:42:06;;;;;;;;;;;;;;;;;;5014730;28;19971;-89
2022/07/18 15:44:37;;;;;;;;;;;;;;;;;;4998928;28;19913;-90
2022/07/18 15:47:02;;;;;;;;;;;;;;;;;;5029192;28;19917;-90
2022/07/18 15:49:28;;;;;;;;;;;;;;;;;;5001248;28;19987;-89
2022/07/18 15:51:53;;;;;;;;;;;;;;;;;;5017267;28;19920;-89
2022/07/18 15:54:19;;;;;;;;;;;;;;;;;;5012557;28;20391;-89
2022/07/18 15:56:44;;;;;;;;;;;;;;;;;;4996353;28;20051;-86
2022/07/18 15:59:10;;;;;;;;;;;;;;;;;;5018858;28;19913;-90
2022/07/18 16:01:35;;;;;;;;;;;;;;;;;;5007111;28;20008;-76
2022/07/18 16:04:01;;;;;;;;;;;;;;;;;;5024428;28;19967;-85
2022/07/18 16:06:26;;;;;;;;;;;;;;;;;;5028315;28;20355;-88
2022/07/18 16:08:51;;;;;;;;;;;;;;;;;;5016524;23;19926;-81
2022/07/18 16:11:17;;;;;;;;;;;;;;;;;;4987760;28;20313;-79
2022/07/18 16:13:42;;;;;;;;;;;;;;;;;;4991293;28;19914;-78
2022/07/18 16:16:07;;;;;;;;;;;;;;;;;;5004831;28;20418;-77
2022/07/18 16:18:33;;;;;;;;;;;;;;;;;;4974840;28;19914;-79
2022/07/18 16:20:58;;;;;;;;;;;;;;;;;;4969402;28;19961;-79
2022/07/18 16:23:24;;;;;;;;;;;;;;;;;;4966601;28;19946;-78
2022/07/18 16:25:49;;;;;;;;;;;;;;;;;;4961662;28;19961;-78
2022/07/18 16:28:15;;;;;;;;;;;;;;;;;;4967551;28;19966;-79
2022/07/18 16:30:40;;;;;;;;;;;;;;;;;;4961068;28;20384;-78
2022/07/18 16:33:05;;;;;;;;;;;;;;;;;;4962261;28;19921;-77
2022/07/18 16:35:31;;;;;;;;;;;;;;;;;;4966408;28;20004;-79
2022/07/18 16:37:56;;;;;;;;;;;;;;;;;;4957271;28;19914;-78